Time;durP1;ratioP1;P1;durP2;ratioP2;P2;SDS_P1;SDS_P2;PMS_P1;PMS_P2;Temp;Humidity;BMP_temperature;BMP_pressure;BME280_temperature;BME280_humidity;BME280_pressure;Samples;Min_cycle;Max_cycle;Signal;HPM_P1;HPM_P2
2023/12/06 00:01:02;;;;;;;33.83;18.10;;;10.90;54.00;;;;;;4975771;28;20561;-79
2023/12/06 00:03:31;;;;;;;33.13;18.33;;;10.90;53.80;;;;;;4981387;28;20446;-79
2023/12/06 00:05:59;;;;;;;34.00;19.70;;;10.90;54.00;;;;;;4991569;28;20441;-80
2023/12/06 00:08:27;;;;;;;31.00;16.90;;;10.90;54.10;;;;;;4988573;28;20470;-79
2023/12/06 00:10:57;;;;;;;36.13;17.77;;;11.00;53.80;;;;;;4982891;28;20477;-79
2023/12/06 00:13:27;;;;;;;30.17;16.60;;;11.00;54.20;;;;;;4983697;28;20446;-80
2023/12/06 00:15:55;;;;;;;32.20;18.50;;;11.00;53.80;;;;;;4975944;28;20457;-79
2023/12/06 00:18:23;;;;;;;33.20;18.87;;;11.00;53.70;;;;;;4980976;28;20452;-79
2023/12/06 00:20:52;;;;;;;31.67;18.43;;;10.90;53.70;;;;;;4973770;28;20496;-79
2023/12/06 00:23:20;;;;;;;33.90;18.40;;;11.00;53.80;;;;;;4983773;28;20505;-78
2023/12/06 00:25:48;;;;;;;33.20;18.57;;;11.00;53.90;;;;;;4980488;28;20497;-78
2023/12/06 00:28:16;;;;;;;31.33;17.57;;;11.00;53.80;;;;;;4987180;28;20454;-78
2023/12/06 00:30:45;;;;;;;33.33;18.23;;;11.00;54.10;;;;;;4984659;28;20532;-78
2023/12/06 00:33:14;;;;;;;33.87;19.17;;;11.00;54.00;;;;;;4985525;28;20489;-78
2023/12/06 00:35:43;;;;;;;29.40;17.70;;;10.90;53.90;;;;;;4978815;28;20474;-78
2023/12/06 00:38:11;;;;;;;31.83;18.40;;;10.90;54.10;;;;;;4981991;28;20457;-78
2023/12/06 00:40:39;;;;;;;31.03;17.40;;;11.00;54.10;;;;;;4990751;28;20506;-78
2023/12/06 00:43:07;;;;;;;33.33;18.40;;;11.00;53.90;;;;;;4981563;28;20485;-78
2023/12/06 00:45:35;;;;;;;33.63;17.70;;;11.00;53.80;;;;;;4983477;28;20489;-78
2023/12/06 00:48:05;;;;;;;33.83;19.13;;;11.00;53.80;;;;;;4986885;28;20458;-77
2023/12/06 00:50:33;;;;;;;33.10;19.03;;;11.00;53.40;;;;;;4969168;28;20906;-77
2023/12/06 00:53:02;;;;;;;36.40;19.60;;;10.90;54.10;;;;;;4986150;28;20477;-77
2023/12/06 00:55:30;;;;;;;34.07;19.10;;;11.00;53.90;;;;;;4986218;28;20454;-78
2023/12/06 00:57:58;;;;;;;36.80;20.00;;;11.00;53.80;;;;;;4989115;28;20452;-78
2023/12/06 01:00:27;;;;;;;38.20;21.60;;;11.00;53.80;;;;;;4989154;28;20474;-77
2023/12/06 01:02:55;;;;;;;39.70;20.13;;;11.00;53.90;;;;;;4986147;28;20454;-77
2023/12/06 01:05:25;;;;;;;36.23;20.07;;;11.00;53.40;;;;;;4983529;28;20446;-77
2023/12/06 01:07:53;;;;;;;36.17;19.93;;;11.00;53.60;;;;;;4983586;28;20458;-78
2023/12/06 01:10:23;;;;;;;41.10;22.77;;;11.00;53.60;;;;;;5027617;22;20442;-79
2023/12/06 01:12:51;;;;;;;40.43;21.87;;;11.00;53.60;;;;;;5044900;28;20432;-78
2023/12/06 01:15:19;;;;;;;38.40;21.73;;;10.90;53.40;;;;;;5047511;28;20446;-79
2023/12/06 01:17:47;;;;;;;42.37;22.50;;;11.00;53.70;;;;;;5050436;28;20435;-79
2023/12/06 01:20:15;;;;;;;42.47;22.67;;;11.00;53.40;;;;;;5039402;28;20486;-79
2023/12/06 01:22:44;;;;;;;67.43;22.30;;;10.90;53.40;;;;;;5036440;28;20539;-78
2023/12/06 01:25:12;;;;;;;42.93;22.67;;;11.00;53.80;;;;;;5054574;28;20489;-79
2023/12/06 01:27:40;;;;;;;37.50;21.70;;;10.90;53.60;;;;;;5046811;28;20438;-79
2023/12/06 01:30:08;;;;;;;40.43;22.00;;;10.90;53.50;;;;;;5058944;28;20431;-80
2023/12/06 01:32:40;;;;;;;40.10;21.77;;;10.90;53.40;;;;;;5045457;28;20431;-77
2023/12/06 01:35:09;;;;;;;41.37;22.70;;;11.00;53.70;;;;;;5039905;28;20853;-76
2023/12/06 01:37:37;;;;;;;43.60;22.87;;;11.00;53.00;;;;;;5037675;28;20522;-77
2023/12/06 01:40:08;;;;;;;40.80;22.17;;;10.90;53.10;;;;;;5053640;28;20562;-76
2023/12/06 01:42:36;;;;;;;40.30;22.07;;;10.90;53.30;;;;;;5045125;28;20443;-78
2023/12/06 01:45:05;;;;;;;44.70;23.17;;;10.90;53.20;;;;;;5044816;28;20489;-78
2023/12/06 01:47:33;;;;;;;43.13;23.33;;;10.80;53.20;;;;;;5044788;28;20447;-75
2023/12/06 01:50:03;;;;;;;47.73;24.57;;;10.90;53.20;;;;;;5039686;28;20809;-77
2023/12/06 01:52:33;;;;;;;43.53;23.90;;;10.90;53.40;;;;;;5047417;28;20431;-77
2023/12/06 01:55:00;;;;;;;43.23;23.20;;;10.90;53.40;;;;;;5048367;28;20491;-77
2023/12/06 01:57:30;;;;;;;45.20;23.03;;;10.90;53.20;;;;;;5057224;28;20446;-74
2023/12/06 01:59:58;;;;;;;39.77;21.43;;;10.90;53.00;;;;;;5043778;28;20502;-77
2023/12/06 02:02:26;;;;;;;42.90;22.70;;;10.90;53.10;;;;;;5045389;28;20534;-77
2023/12/06 02:04:53;;;;;;;39.40;21.90;;;10.90;53.00;;;;;;5046850;28;20510;-77
2023/12/06 02:07:21;;;;;;;41.57;22.20;;;10.90;52.90;;;;;;5041388;28;20477;-77
2023/12/06 02:09:50;;;;;;;41.67;22.23;;;10.90;52.80;;;;;;5043437;28;20466;-78
2023/12/06 02:12:18;;;;;;;40.23;21.93;;;10.90;53.20;;;;;;5039198;28;20465;-78
2023/12/06 02:14:47;;;;;;;38.87;21.97;;;10.90;52.90;;;;;;5049149;28;20439;-78
2023/12/06 02:17:16;;;;;;;40.37;22.17;;;10.70;53.40;;;;;;5041250;28;20527;-78
2023/12/06 02:19:43;;;;;;;42.60;22.80;;;10.70;53.40;;;;;;5051608;28;20534;-77
2023/12/06 02:22:11;;;;;;;40.80;22.30;;;10.80;53.70;;;;;;5052588;28;20507;-77
2023/12/06 02:24:40;;;;;;;43.27;22.67;;;10.80;53.50;;;;;;5043400;28;20440;-78
2023/12/06 02:27:09;;;;;;;39.90;21.20;;;10.80;53.50;;;;;;5047729;28;20444;-78
2023/12/06 02:29:38;;;;;;;38.33;21.33;;;10.80;53.10;;;;;;5033050;28;20511;-78
2023/12/06 02:32:06;;;;;;;38.10;21.20;;;10.80;53.30;;;;;;5056209;28;20462;-78
2023/12/06 02:34:34;;;;;;;38.17;21.20;;;10.80;53.50;;;;;;5059217;28;20450;-77
2023/12/06 02:37:04;;;;;;;40.20;21.40;;;10.80;53.20;;;;;;5041201;28;20438;-78
2023/12/06 02:39:35;;;;;;;42.43;21.40;;;10.80;53.60;;;;;;5040500;28;20442;-78
2023/12/06 02:42:04;;;;;;;38.57;21.07;;;10.70;53.60;;;;;;5036886;28;20486;-78
2023/12/06 02:44:34;;;;;;;40.23;21.27;;;10.70;53.50;;;;;;5052004;28;20439;-77
2023/12/06 02:47:02;;;;;;;40.33;21.47;;;10.80;53.80;;;;;;5041497;28;20443;-77
2023/12/06 02:49:30;;;;;;;38.80;20.23;;;10.80;53.60;;;;;;5041175;28;20481;-78
2023/12/06 02:51:58;;;;;;;43.90;22.07;;;10.90;53.40;;;;;;5030871;28;20463;-79
2023/12/06 02:54:26;;;;;;;39.20;21.27;;;10.90;53.50;;;;;;5051439;28;20540;-78
2023/12/06 02:56:53;;;;;;;36.47;20.33;;;10.90;53.20;;;;;;5049324;28;20538;-78
2023/12/06 02:59:21;;;;;;;38.70;21.30;;;10.80;53.40;;;;;;5037792;28;20479;-78
2023/12/06 03:01:50;;;;;;;40.50;21.00;;;10.90;53.70;;;;;;5040824;28;20572;-78
2023/12/06 03:04:18;;;;;;;40.13;20.60;;;10.90;53.60;;;;;;5042636;28;20539;-78
2023/12/06 03:06:46;;;;;;;39.93;21.00;;;10.80;53.50;;;;;;5048913;28;20477;-78
2023/12/06 03:09:14;;;;;;;40.70;21.03;;;10.90;53.50;;;;;;5033023;28;20431;-78
2023/12/06 03:11:42;;;;;;;36.80;19.90;;;10.90;53.20;;;;;;5035938;28;20977;-78
2023/12/06 03:14:10;;;;;;;44.07;22.77;;;10.90;53.10;;;;;;5038917;28;20448;-78
2023/12/06 03:16:37;;;;;;;41.20;21.63;;;10.90;53.00;;;;;;5037869;28;20955;-78
2023/12/06 03:19:07;;;;;;;53.93;28.63;;;10.90;53.40;;;;;;5041157;28;20689;-78
2023/12/06 03:21:35;;;;;;;58.57;31.33;;;10.90;53.50;;;;;;5032794;28;20471;-78
2023/12/06 03:24:03;;;;;;;69.20;37.17;;;11.00;53.30;;;;;;5032523;28;20443;-79
2023/12/06 03:26:31;;;;;;;74.70;37.73;;;11.00;53.40;;;;;;5033738;28;20530;-78
2023/12/06 03:28:59;;;;;;;80.70;39.80;;;11.00;53.30;;;;;;5033668;28;20432;-77
2023/12/06 03:31:27;;;;;;;77.80;40.40;;;11.00;53.30;;;;;;5032230;28;20451;-78
2023/12/06 03:33:55;;;;;;;83.73;42.07;;;11.00;53.20;;;;;;5043133;28;20521;-78
2023/12/06 03:36:24;;;;;;;75.97;40.17;;;11.00;53.40;;;;;;5032482;28;20527;-79
2023/12/06 03:38:52;;;;;;;79.90;40.33;;;11.00;53.30;;;;;;5041332;28;20522;-79
2023/12/06 03:41:20;;;;;;;81.23;40.83;;;11.00;53.40;;;;;;5039864;28;20478;-78
2023/12/06 03:43:48;;;;;;;77.50;38.30;;;11.10;53.30;;;;;;5034776;28;20435;-79
2023/12/06 03:46:29;;;;;;;68.70;36.07;;;11.00;53.10;;;;;;5039520;28;20476;-79
2023/12/06 03:48:58;;;;;;;69.77;36.50;;;11.00;53.60;;;;;;5033520;28;20447;-78
2023/12/06 03:51:28;;;;;;;64.63;33.20;;;11.00;53.00;;;;;;5032188;28;20491;-78
2023/12/06 03:53:57;;;;;;;68.23;34.43;;;11.00;52.90;;;;;;5050703;28;20482;-78
2023/12/06 03:56:24;;;;;;;63.27;33.87;;;11.00;53.10;;;;;;5048744;28;20471;-78
2023/12/06 03:58:53;;;;;;;70.77;36.60;;;11.00;53.30;;;;;;5038111;28;20474;-79
2023/12/06 04:01:21;;;;;;;73.10;37.47;;;11.00;53.60;;;;;;5053733;28;20474;-79
2023/12/06 04:03:50;;;;;;;69.70;34.77;;;10.90;53.00;;;;;;5056186;28;20450;-79
2023/12/06 04:06:18;;;;;;;62.83;34.10;;;10.80;53.20;;;;;;5052432;28;20443;-79
2023/12/06 04:08:48;;;;;;;61.47;32.27;;;10.90;53.40;;;;;;5056705;28;20453;-79
2023/12/06 04:11:16;;;;;;;64.27;31.90;;;10.90;53.50;;;;;;5059925;28;20470;-78
2023/12/06 04:13:44;;;;;;;60.00;30.67;;;10.90;53.60;;;;;;5057742;28;20473;-79
2023/12/06 04:16:13;;;;;;;68.47;32.33;;;10.90;53.20;;;;;;5053270;28;20518;-79
2023/12/06 04:18:42;;;;;;;57.30;29.67;;;10.90;53.60;;;;;;5040554;28;20448;-79
2023/12/06 04:21:10;;;;;;;59.83;31.03;;;10.80;52.70;;;;;;5039203;28;20466;-77
2023/12/06 04:23:38;;;;;;;58.70;29.70;;;10.80;53.70;;;;;;5052201;28;20458;-79
2023/12/06 04:26:07;;;;;;;60.07;30.43;;;10.80;53.20;;;;;;5046348;28;20443;-79
2023/12/06 04:28:35;;;;;;;52.43;27.10;;;10.80;53.60;;;;;;5042146;28;20537;-79
2023/12/06 04:31:04;;;;;;;51.27;25.80;;;10.80;53.30;;;;;;5047706;28;20494;-79
2023/12/06 04:33:32;;;;;;;54.77;28.10;;;10.90;53.40;;;;;;5047138;28;20506;-79
2023/12/06 04:36:00;;;;;;;54.17;27.07;;;10.90;53.40;;;;;;5047524;28;20592;-79
2023/12/06 04:38:28;;;;;;;54.47;28.13;;;10.90;53.70;;;;;;5051602;28;20505;-78
2023/12/06 04:40:56;;;;;;;53.20;27.40;;;11.00;53.50;;;;;;5056163;28;20469;-79
2023/12/06 04:43:25;;;;;;;48.43;25.50;;;11.00;53.60;;;;;;5044378;28;20474;-79
2023/12/06 04:45:53;;;;;;;49.60;24.93;;;11.10;53.50;;;;;;5054580;28;20546;-78
2023/12/06 04:48:22;;;;;;;51.23;27.07;;;11.10;53.60;;;;;;5052345;28;20461;-79
2023/12/06 04:50:50;;;;;;;48.13;25.20;;;11.10;53.20;;;;;;5046589;28;20489;-77
2023/12/06 04:53:19;;;;;;;44.07;24.90;;;11.10;53.40;;;;;;5051776;28;20501;-79
2023/12/06 04:55:47;;;;;;;46.53;25.83;;;11.20;53.50;;;;;;5046768;28;20530;-79
2023/12/06 04:58:14;;;;;;;50.60;26.30;;;11.20;52.90;;;;;;5047967;28;20442;-78
2023/12/06 05:00:44;;;;;;;49.73;25.37;;;11.20;53.10;;;;;;5041588;28;20462;-78
2023/12/06 05:03:12;;;;;;;45.93;24.40;;;11.20;53.10;;;;;;5046681;28;20470;-76
2023/12/06 05:05:40;;;;;;;48.63;25.43;;;11.20;53.30;;;;;;5047304;28;20448;-79
2023/12/06 05:08:08;;;;;;;50.47;26.03;;;11.30;53.10;;;;;;5054460;28;20430;-79
2023/12/06 05:10:36;;;;;;;45.30;24.40;;;11.30;53.00;;;;;;5046601;28;20470;-79
2023/12/06 05:13:04;;;;;;;46.37;25.30;;;11.20;52.60;;;;;;5054379;28;20454;-79
2023/12/06 05:15:32;;;;;;;48.67;25.50;;;11.20;53.10;;;;;;5054912;28;20449;-79
2023/12/06 05:18:02;;;;;;;50.33;26.17;;;11.00;53.00;;;;;;5058440;28;20481;-79
2023/12/06 05:20:30;;;;;;;52.03;27.10;;;11.00;53.30;;;;;;5048843;28;20542;-79
2023/12/06 05:22:57;;;;;;;50.80;25.77;;;10.90;52.90;;;;;;5043871;28;20562;-78
2023/12/06 05:25:26;;;;;;;51.20;25.70;;;11.00;52.80;;;;;;5036786;28;20475;-78
2023/12/06 05:27:53;;;;;;;51.90;26.43;;;10.90;52.90;;;;;;5052697;28;20452;-79
2023/12/06 05:30:22;;;;;;;48.40;26.47;;;10.90;53.00;;;;;;5041893;28;20459;-79
2023/12/06 05:32:49;;;;;;;51.10;26.03;;;10.90;53.00;;;;;;5044457;28;20470;-79
2023/12/06 05:35:19;;;;;;;45.27;24.60;;;10.70;53.20;;;;;;5053981;28;20439;-78
2023/12/06 05:37:47;;;;;;;45.93;25.30;;;10.70;53.20;;;;;;5055990;28;20530;-78
2023/12/06 05:40:15;;;;;;;47.87;25.27;;;10.80;53.50;;;;;;5054949;28;20474;-79
2023/12/06 05:42:43;;;;;;;45.87;24.77;;;10.80;53.10;;;;;;5055745;28;20467;-78
2023/12/06 05:45:11;;;;;;;51.57;24.40;;;10.80;53.00;;;;;;5055843;28;20505;-77
2023/12/06 05:47:39;;;;;;;48.40;25.37;;;10.80;52.80;;;;;;5057317;28;20525;-77
2023/12/06 05:50:12;;;;;;;48.10;25.63;;;10.70;53.20;;;;;;5057786;28;20462;-78
2023/12/06 05:52:42;;;;;;;46.53;24.63;;;10.80;53.20;;;;;;5051432;28;20512;-77
2023/12/06 05:55:11;;;;;;;47.37;24.27;;;10.70;52.70;;;;;;5056731;28;20439;-78
2023/12/06 05:57:39;;;;;;;48.33;24.87;;;10.70;53.20;;;;;;5057373;28;20470;-78
2023/12/06 06:00:12;;;;;;;41.30;23.40;;;10.70;53.10;;;;;;5056318;28;20446;-77
2023/12/06 06:02:40;;;;;;;49.30;25.93;;;10.70;53.00;;;;;;5055543;28;20470;-78
2023/12/06 06:05:09;;;;;;;48.70;25.50;;;10.60;53.30;;;;;;5048390;28;20447;-79
2023/12/06 06:07:37;;;;;;;46.73;25.07;;;10.60;53.10;;;;;;5051054;28;20447;-78
2023/12/06 06:10:08;;;;;;;49.10;24.00;;;10.60;53.10;;;;;;5043531;28;20865;-77
2023/12/06 06:12:36;;;;;;;45.97;23.93;;;10.60;53.60;;;;;;5045227;28;20444;-78
2023/12/06 06:15:05;;;;;;;52.70;26.40;;;10.60;52.80;;;;;;5047126;28;20455;-78
2023/12/06 06:17:33;;;;;;;49.77;25.30;;;10.60;52.90;;;;;;5049811;28;20542;-77
2023/12/06 06:20:01;;;;;;;49.60;25.40;;;10.60;53.20;;;;;;5047175;28;20457;-77
2023/12/06 06:22:29;;;;;;;50.33;25.37;;;10.70;53.10;;;;;;5043863;28;20506;-79
2023/12/06 06:24:57;;;;;;;48.70;24.70;;;10.70;53.60;;;;;;5047027;28;20474;-78
2023/12/06 06:27:27;;;;;;;47.67;25.40;;;10.70;53.40;;;;;;5049653;28;20473;-79
2023/12/06 06:29:55;;;;;;;46.20;23.33;;;10.60;52.90;;;;;;5054115;28;20536;-77
2023/12/06 06:32:24;;;;;;;51.73;25.10;;;10.50;52.80;;;;;;5042499;28;20550;-78
2023/12/06 06:34:52;;;;;;;54.73;25.40;;;10.50;53.40;;;;;;5049633;28;20960;-79
2023/12/06 06:37:21;;;;;;;46.20;24.10;;;10.60;53.40;;;;;;5045093;28;20470;-78
2023/12/06 06:39:49;;;;;;;46.83;24.47;;;10.60;53.30;;;;;;5053496;28;20510;-79
2023/12/06 06:42:17;;;;;;;50.63;26.03;;;10.60;52.40;;;;;;5054884;28;20475;-79
2023/12/06 06:44:47;;;;;;;48.10;24.97;;;10.60;53.40;;;;;;5052417;28;20517;-80
2023/12/06 06:47:23;;;;;;;50.47;25.10;;;10.70;53.50;;;;;;5047970;28;20422;-80
2023/12/06 06:49:53;;;;;;;49.03;24.53;;;10.70;53.00;;;;;;5058760;28;20434;-79
2023/12/06 06:52:22;;;;;;;47.57;25.67;;;10.60;53.10;;;;;;5061174;28;20458;-78
2023/12/06 06:54:49;;;;;;;49.77;26.30;;;10.60;52.90;;;;;;5071456;28;20458;-78
2023/12/06 06:57:18;;;;;;;49.03;24.73;;;10.60;53.30;;;;;;5052442;28;20430;-78
2023/12/06 06:59:47;;;;;;;48.10;24.93;;;10.70;53.30;;;;;;5045783;28;20486;-79
2023/12/06 07:02:16;;;;;;;43.53;23.40;;;10.60;53.00;;;;;;5049055;28;20532;-79
2023/12/06 07:04:44;;;;;;;46.67;25.30;;;10.60;53.10;;;;;;5054568;28;20470;-77
2023/12/06 07:07:13;;;;;;;46.03;23.87;;;10.60;53.30;;;;;;5055372;28;20438;-78
2023/12/06 07:09:41;;;;;;;48.20;24.60;;;10.50;53.10;;;;;;5049835;28;20440;-78
2023/12/06 07:12:09;;;;;;;45.67;23.97;;;10.50;53.00;;;;;;5051425;28;20501;-78
2023/12/06 07:14:37;;;;;;;50.60;25.23;;;10.50;53.30;;;;;;5045198;28;20542;-78
2023/12/06 07:17:07;;;;;;;48.07;24.63;;;10.40;53.10;;;;;;5052355;28;20442;-77
2023/12/06 07:19:35;;;;;;;47.47;24.40;;;10.40;53.80;;;;;;5047477;28;20470;-78
2023/12/06 07:22:06;;;;;;;49.47;25.97;;;10.50;53.40;;;;;;5046436;28;20478;-78
2023/12/06 07:24:34;;;;;;;47.33;25.20;;;10.60;53.70;;;;;;5048200;28;20477;-77
2023/12/06 07:27:03;;;;;;;49.83;25.80;;;10.60;52.70;;;;;;5044767;28;20451;-77
2023/12/06 07:29:31;;;;;;;52.67;27.20;;;10.60;53.30;;;;;;5046967;28;20431;-76
2023/12/06 07:31:59;;;;;;;48.47;25.40;;;10.50;53.30;;;;;;5053713;28;20488;-77
2023/12/06 07:34:29;;;;;;;48.87;25.33;;;10.50;53.10;;;;;;5052744;28;20495;-77
2023/12/06 07:37:09;;;;;;;50.00;26.67;;;10.40;53.00;;;;;;5053581;28;20488;-77
2023/12/06 07:39:38;;;;;;;50.53;26.13;;;10.40;53.10;;;;;;5041366;28;20482;-77
2023/12/06 07:42:06;;;;;;;50.57;25.97;;;10.40;53.40;;;;;;5048506;28;20490;-78
2023/12/06 07:44:34;;;;;;;48.83;26.10;;;10.40;53.70;;;;;;5050768;28;20557;-78
2023/12/06 07:47:02;;;;;;;49.63;25.43;;;10.50;53.40;;;;;;5051056;28;20442;-77
2023/12/06 07:49:31;;;;;;;48.47;25.07;;;10.40;53.40;;;;;;5044754;28;20509;-78
2023/12/06 07:51:59;;;;;;;52.30;27.13;;;10.40;53.40;;;;;;5046542;28;20533;-78
2023/12/06 07:54:26;;;;;;;50.27;26.40;;;10.40;53.50;;;;;;5040827;28;20438;-77
2023/12/06 07:56:55;;;;;;;51.50;27.23;;;10.30;53.60;;;;;;5045147;28;20476;-78
2023/12/06 07:59:23;;;;;;;47.27;26.27;;;10.40;53.30;;;;;;5055344;28;20510;-79
2023/12/06 08:01:50;;;;;;;50.20;25.67;;;10.30;53.40;;;;;;5054289;28;20512;-78
2023/12/06 08:04:19;;;;;;;47.73;25.57;;;10.30;53.50;;;;;;5050216;28;20509;-76
2023/12/06 08:06:48;;;;;;;49.03;26.20;;;10.30;53.50;;;;;;5037539;28;20436;-77
2023/12/06 08:09:17;;;;;;;49.73;26.80;;;10.20;53.40;;;;;;5042180;28;20434;-78
2023/12/06 08:11:46;;;;;;;50.20;26.80;;;10.10;53.60;;;;;;5036621;28;20479;-78
2023/12/06 08:14:14;;;;;;;49.60;27.50;;;10.20;53.70;;;;;;5047260;28;20439;-77
2023/12/06 08:16:42;;;;;;;50.67;26.83;;;10.10;53.60;;;;;;5055525;28;20430;-78
2023/12/06 08:19:11;;;;;;;46.87;25.50;;;10.00;53.70;;;;;;5048619;28;20454;-77
2023/12/06 08:21:39;;;;;;;49.70;25.90;;;10.10;53.70;;;;;;5039549;28;20470;-77
2023/12/06 08:24:08;;;;;;;47.30;25.80;;;10.20;54.20;;;;;;5048338;28;20557;-77
2023/12/06 08:29:23;;;;;;;48.97;25.17;;;10.30;53.50;;;;;;5052348;28;20462;-79
2023/12/06 08:31:51;;;;;;;47.97;25.83;;;10.40;54.30;;;;;;5044001;28;20463;-77
2023/12/06 08:34:19;;;;;;;44.37;24.07;;;10.40;53.50;;;;;;5042695;28;20438;-78
2023/12/06 08:36:47;;;;;;;49.50;26.80;;;10.30;53.20;;;;;;5055496;28;20485;-77
2023/12/06 08:39:17;;;;;;;45.63;24.80;;;10.20;53.70;;;;;;5053255;28;20442;-78
2023/12/06 08:41:46;;;;;;;46.70;24.60;;;10.30;54.20;;;;;;5046514;28;20462;-78
2023/12/06 08:44:14;;;;;;;43.87;23.53;;;10.30;54.00;;;;;;5053244;28;20477;-77
2023/12/06 08:46:43;;;;;;;44.37;24.40;;;10.40;53.70;;;;;;5052418;28;20470;-78
2023/12/06 08:49:11;;;;;;;41.57;23.27;;;10.40;53.80;;;;;;5053996;28;20450;-77
2023/12/06 08:51:40;;;;;;;40.73;23.50;;;10.40;54.20;;;;;;5044810;28;20559;-77
2023/12/06 08:54:09;;;;;;;44.43;23.90;;;10.40;53.90;;;;;;5052796;28;20530;-77
2023/12/06 08:56:39;;;;;;;43.20;24.00;;;10.30;54.10;;;;;;5053695;28;20634;-78
2023/12/06 08:59:07;;;;;;;46.70;24.07;;;10.40;54.40;;;;;;5053189;28;20439;-79
2023/12/06 09:01:35;;;;;;;42.47;23.20;;;10.30;54.10;;;;;;5042603;28;20502;-78
2023/12/06 09:04:03;;;;;;;47.77;23.50;;;10.40;54.50;;;;;;5047771;28;20475;-77
2023/12/06 09:06:31;;;;;;;46.20;24.23;;;10.50;55.00;;;;;;5042684;28;20474;-77
2023/12/06 09:08:59;;;;;;;44.43;21.80;;;10.50;54.80;;;;;;5053901;28;20454;-79
2023/12/06 09:11:27;;;;;;;43.90;22.40;;;10.50;54.30;;;;;;5056299;28;20494;-78
2023/12/06 09:13:57;;;;;;;43.57;22.80;;;10.60;54.80;;;;;;5056056;28;20450;-77
2023/12/06 09:16:25;;;;;;;37.20;21.00;;;10.60;54.70;;;;;;5055029;28;20525;-77
2023/12/06 09:18:55;;;;;;;39.53;21.73;;;10.60;53.90;;;;;;5054964;28;20454;-77
2023/12/06 09:21:26;;;;;;;41.87;21.90;;;10.60;54.10;;;;;;5055540;28;20472;-78
2023/12/06 09:23:54;;;;;;;42.95;22.65;;;10.70;54.10;;;;;;5041011;28;20532;-77
2023/12/06 09:26:22;;;;;;;37.87;21.30;;;10.80;54.60;;;;;;5041444;28;20919;-77
2023/12/06 09:28:51;;;;;;;39.40;22.00;;;10.90;54.10;;;;;;5051770;28;20475;-76
2023/12/06 09:31:20;;;;;;;40.47;21.33;;;10.90;53.90;;;;;;5058903;28;20527;-79
2023/12/06 09:33:48;;;;;;;43.50;22.70;;;10.80;53.70;;;;;;5050087;28;20439;-78
2023/12/06 09:36:17;;;;;;;39.47;21.70;;;10.70;53.50;;;;;;5057893;28;20431;-77
2023/12/06 09:38:45;;;;;;;42.93;21.97;;;10.60;53.60;;;;;;5057887;28;20452;-79
2023/12/06 09:41:14;;;;;;;40.10;21.63;;;10.70;54.40;;;;;;5053545;28;20542;-77
2023/12/06 09:43:42;;;;;;;36.77;21.47;;;10.70;53.50;;;;;;5053226;28;20431;-78
2023/12/06 09:46:10;;;;;;;35.27;20.77;;;10.80;53.80;;;;;;5055656;28;20471;-78
2023/12/06 09:48:40;;;;;;;36.70;20.20;;;10.60;53.50;;;;;;5039095;28;20955;-78
2023/12/06 09:51:08;;;;;;;35.57;19.43;;;10.60;53.40;;;;;;5047237;28;20463;-77
2023/12/06 09:53:38;;;;;;;39.20;21.40;;;10.60;53.50;;;;;;5053913;28;20575;-74
2023/12/06 09:56:08;;;;;;;31.53;17.90;;;10.70;55.10;;;;;;5053155;28;20466;-75
2023/12/06 09:58:36;;;;;;;36.80;18.17;;;11.10;55.20;;;;;;5045952;28;20447;-75
2023/12/06 10:01:04;;;;;;;31.50;17.30;;;11.40;55.30;;;;;;5046345;28;20510;-75
2023/12/06 10:03:32;;;;;;;38.80;16.60;;;11.70;55.20;;;;;;5053415;28;20438;-75
2023/12/06 10:06:03;;;;;;;29.87;17.70;;;11.80;55.40;;;;;;5053986;28;20920;-74
2023/12/06 10:08:33;;;;;;;28.77;17.20;;;12.00;55.20;;;;;;5061792;28;20438;-75
2023/12/06 10:11:02;;;;;;;32.00;17.37;;;12.10;55.30;;;;;;5063866;28;20458;-75
2023/12/06 10:13:34;;;;;;;31.43;16.13;;;12.20;55.30;;;;;;5063558;28;20428;-76
2023/12/06 10:16:02;;;;;;;29.20;15.50;;;12.30;55.20;;;;;;5047514;28;20473;-76
2023/12/06 10:18:30;;;;;;;25.77;15.40;;;12.40;55.30;;;;;;5054154;28;20439;-77
2023/12/06 10:20:58;;;;;;;23.33;14.43;;;12.50;55.20;;;;;;5045324;28;20534;-75
2023/12/06 10:23:29;;;;;;;28.57;15.40;;;12.50;55.30;;;;;;5047800;28;20477;-76
2023/12/06 10:25:57;;;;;;;28.67;15.27;;;12.60;55.30;;;;;;5050889;28;20494;-76
2023/12/06 10:28:25;;;;;;;26.47;15.13;;;12.60;55.40;;;;;;5047816;28;20453;-77
2023/12/06 10:31:01;;;;;;;25.73;14.67;;;12.70;55.40;;;;;;5043470;28;20470;-77
2023/12/06 10:33:30;;;;;;;23.17;13.97;;;12.70;55.50;;;;;;5050204;28;20446;-78
2023/12/06 10:35:58;;;;;;;25.10;14.30;;;12.80;55.50;;;;;;5047685;28;20497;-78
2023/12/06 10:38:28;;;;;;;21.50;13.77;;;12.80;55.40;;;;;;5049878;28;20530;-78
2023/12/06 10:40:58;;;;;;;25.70;14.03;;;12.80;55.40;;;;;;5050202;28;20455;-77
2023/12/06 10:43:26;;;;;;;25.93;14.20;;;12.90;55.50;;;;;;5050765;28;20488;-77
2023/12/06 10:45:54;;;;;;;21.40;12.53;;;12.90;55.50;;;;;;5038800;28;20467;-77
2023/12/06 10:48:23;;;;;;;22.50;13.13;;;12.90;55.40;;;;;;5046503;28;20488;-80
2023/12/06 10:50:51;;;;;;;20.60;11.97;;;12.90;55.40;;;;;;5040728;28;20458;-77
2023/12/06 10:53:19;;;;;;;24.10;11.77;;;12.90;55.40;;;;;;5049302;28;20929;-77
2023/12/06 10:55:48;;;;;;;20.07;12.10;;;13.00;55.60;;;;;;5050520;28;20470;-79
2023/12/06 10:58:17;;;;;;;20.17;11.93;;;13.00;55.50;;;;;;5037388;28;20450;-79
2023/12/06 11:00:46;;;;;;;22.83;11.53;;;13.00;55.60;;;;;;5053947;28;20493;-78
2023/12/06 11:03:15;;;;;;;19.37;11.80;;;13.00;55.60;;;;;;5040769;28;20446;-78
2023/12/06 11:05:45;;;;;;;20.80;11.70;;;13.10;55.60;;;;;;5054435;28;20467;-79
2023/12/06 11:08:41;;;;;;;18.40;11.63;;;13.10;55.60;;;;;;5039510;28;20449;-79
2023/12/06 11:11:25;;;;;;;19.77;12.13;;;13.20;55.70;;;;;;5039810;28;20458;-78
2023/12/06 11:13:58;;;;;;;18.40;10.83;;;13.20;55.80;;;;;;5048026;28;20491;-77
2023/12/06 11:16:32;;;;;;;17.60;10.63;;;13.20;55.70;;;;;;5051899;28;20506;-77
2023/12/06 11:19:00;;;;;;;16.60;10.93;;;13.20;55.70;;;;;;5053141;28;20426;-78
2023/12/06 11:21:28;;;;;;;17.17;10.90;;;13.20;55.80;;;;;;5053166;28;20459;-77
2023/12/06 11:23:57;;;;;;;14.43;9.50;;;13.20;55.70;;;;;;5048171;28;20431;-77
2023/12/06 11:26:27;;;;;;;17.97;10.40;;;13.30;55.90;;;;;;5050287;28;20502;-76
2023/12/06 11:28:55;;;;;;;19.00;10.63;;;13.30;55.80;;;;;;5050993;28;20506;-77
2023/12/06 11:31:32;;;;;;;17.27;10.00;;;13.30;55.90;;;;;;5051211;28;20489;-77
2023/12/06 11:34:03;;;;;;;16.70;10.13;;;13.40;55.90;;;;;;5052460;28;20454;-77
2023/12/06 11:36:32;;;;;;;22.37;10.30;;;13.40;56.00;;;;;;5053903;28;20453;-78
2023/12/06 11:39:00;;;;;;;16.60;9.87;;;13.40;56.60;;;;;;5040482;28;20498;-78
2023/12/06 11:41:29;;;;;;;17.07;10.17;;;13.40;56.00;;;;;;5045018;28;20494;-76
2023/12/06 11:43:58;;;;;;;14.73;9.03;;;13.40;56.10;;;;;;5041808;28;20428;-78
2023/12/06 11:46:26;;;;;;;23.40;9.70;;;13.40;56.00;;;;;;5033426;28;20499;-78
2023/12/06 11:48:54;;;;;;;17.13;9.30;;;13.50;56.20;;;;;;5052282;28;20461;-78
2023/12/06 11:51:24;;;;;;;14.50;9.07;;;13.50;56.20;;;;;;5049532;28;20516;-79
2023/12/06 11:53:52;;;;;;;14.00;8.60;;;13.50;56.20;;;;;;5050049;28;20446;-79
2023/12/06 11:56:22;;;;;;;15.17;9.10;;;13.60;56.30;;;;;;5048129;28;20436;-79
2023/12/06 11:58:52;;;;;;;13.47;9.37;;;13.60;56.30;;;;;;5051336;28;20436;-77
2023/12/06 12:01:20;;;;;;;14.40;9.50;;;13.60;56.20;;;;;;5040611;28;20512;-78
2023/12/06 12:03:49;;;;;;;14.60;8.67;;;13.70;56.20;;;;;;5036910;28;20859;-77
2023/12/06 12:06:18;;;;;;;13.10;9.13;;;13.60;56.10;;;;;;5042132;28;20477;-78
2023/12/06 12:08:47;;;;;;;14.10;9.40;;;13.70;56.20;;;;;;5053108;28;20426;-78
2023/12/06 12:11:15;;;;;;;14.17;9.30;;;13.70;56.30;;;;;;5049464;28;20512;-78
2023/12/06 12:13:43;;;;;;;12.40;9.07;;;13.70;56.40;;;;;;5036565;28;20485;-77
2023/12/06 12:16:15;;;;;;;13.07;8.70;;;13.70;56.40;;;;;;5043959;28;20443;-79
2023/12/06 12:18:43;;;;;;;14.00;9.20;;;13.70;56.30;;;;;;5055421;28;20481;-78
2023/12/06 12:21:16;;;;;;;16.03;8.80;;;13.70;56.50;;;;;;5054473;28;20519;-77
2023/12/06 12:23:46;;;;;;;16.00;8.97;;;13.70;56.40;;;;;;5052074;28;20432;-77
2023/12/06 12:26:15;;;;;;;12.33;8.43;;;13.70;56.40;;;;;;5050182;28;20555;-77
2023/12/06 12:28:42;;;;;;;12.67;8.53;;;13.70;56.50;;;;;;5052406;28;20442;-77
2023/12/06 12:31:14;;;;;;;13.50;9.23;;;13.80;56.70;;;;;;5050565;28;20470;-77
2023/12/06 12:33:43;;;;;;;12.90;8.47;;;13.80;56.70;;;;;;5042855;28;20442;-77
2023/12/06 12:36:24;;;;;;;12.60;8.60;;;13.80;56.60;;;;;;5051128;28;20448;-76
2023/12/06 12:38:58;;;;;;;16.37;8.30;;;13.80;56.60;;;;;;5049617;28;20443;-75